首页
METAR-TAF:

METAR-TAF

机场 :

Shaw Air Force Base

Sumter, 南卡罗来纳州, 美国

纬度: 33-58N, 经度: 080-29W, 海拔: 74米

当前天气观测

该预报发布于15分钟前的03:52 UTC
风速3节,风向南转西南
温度 21°C
湿度 94%
气压 1017 hPa
能見度: 16.1公里
天空无云

METAR: KSSC 140352Z AUTO 20003KT 10SM CLR 21/20 A3003 RMK AO2 LTG DSNT S RAE13RAB16E36DZB36E43RAB45E52 SLP169 $

时间: 00:07 (04:07 UTC)


TAF: 丢失

超过4000个机场的气象观测和天气预报(METAR&TAF报告)。

可查询的气象台以黄色和红色小点在地图上表示。

将鼠标移到小点上方,可查看气象台名称。

然后点击查看天气观测和预报。

如需切换地图:点击带黑十字的绿色按钮放大地图;点击带横线的绿色按钮缩小地图;或者点击绿色箭头查看邻近地区的地图。


METAR-TAF: